Time,TemperatureF,DewpointF,PressureIn,WindDirection,WindDirectionDegrees,WindSpeedMPH,WindSpeedGustMPH,Humidity,HourlyPrecipIn,Conditions,Clouds,dailyrainin,SoftwareType,DateUTC
2013-02-06 00:02:00,51.0,43.0,-100.00,SW,230,4.0,8.0,76,-99.99,,,-99.99,,2013-02-06 05:02:00,
2013-02-06 00:12:00,51.0,44.0,-100.00,SW,225,4.0,7.0,77,-99.99,,,-99.99,,2013-02-06 05:12:00,
2013-02-06 00:22:00,50.0,44.0,-100.00,SW,220,6.0,9.0,78,-99.99,,,-99.99,,2013-02-06 05:22:00,
2013-02-06 00:32:00,50.0,44.0,-100.00,SW,225,5.0,9.0,79,-99.99,,,-99.99,,2013-02-06 05:32:00,
2013-02-06 00:42:00,50.0,44.0,-100.00,SW,225,6.0,9.0,80,-99.99,,,-99.99,,2013-02-06 05:42:00,
2013-02-06 00:53:00,50.0,44.0,-100.00,SW,225,6.0,9.0,81,-99.99,,,-99.99,,2013-02-06 05:53:00,
2013-02-06 01:01:00,50.0,44.0,-100.00,SW,225,5.0,7.0,81,-99.99,,,-99.99,,2013-02-06 06:01:00,
2013-02-06 01:11:00,49.0,44.0,-100.00,SW,220,4.0,7.0,82,-99.99,,,-99.99,,2013-02-06 06:11:00,
2013-02-06 01:22:00,49.0,44.0,-100.00,SW,230,4.0,6.0,82,-99.99,,,-99.99,,2013-02-06 06:22:00,
2013-02-06 01:32:00,49.0,44.0,-100.00,SW,230,4.0,6.0,84,-99.99,,,-99.99,,2013-02-06 06:32:00,
2013-02-06 01:42:00,48.0,44.0,-100.00,SW,230,1.0,5.0,84,-99.99,,,-99.99,,2013-02-06 06:42:00,
2013-02-06 01:51:00,48.0,44.0,-100.00,SW,225,1.0,4.0,85,-99.99,,,-99.99,,2013-02-06 06:51:00,
2013-02-06 02:02:00,48.0,44.0,-100.00,SW,225,1.0,4.0,86,-99.99,,,-99.99,,2013-02-06 07:02:00,
2013-02-06 02:11:00,47.0,43.0,-100.00,SW,220,1.0,3.0,86,-99.99,,,-99.99,,2013-02-06 07:11:00,
2013-02-06 02:22:00,47.0,43.0,-100.00,SW,215,1.0,3.0,86,-99.99,,,-99.99,,2013-02-06 07:22:00,
2013-02-06 02:32:00,47.0,43.0,-100.00,SW,225,1.0,4.0,87,-99.99,,,-99.99,,2013-02-06 07:32:00,
2013-02-06 02:42:00,47.0,43.0,-100.00,SW,220,1.0,3.0,88,-99.99,,,-99.99,,2013-02-06 07:42:00,
2013-02-06 02:52:00,46.0,43.0,-100.00,SW,215,2.0,4.0,88,-99.99,,,-99.99,,2013-02-06 07:52:00,
2013-02-06 03:01:00,46.0,43.0,-100.00,SSW,210,1.0,4.0,88,-99.99,,,-99.99,,2013-02-06 08:01:00,
2013-02-06 03:11:00,46.0,43.0,-100.00,SSW,210,1.0,4.0,88,-99.99,,,-99.99,,2013-02-06 08:11:00,
2013-02-06 03:21:00,46.0,43.0,-100.00,SSW,205,1.0,4.0,88,-99.99,,,-99.99,,2013-02-06 08:21:00,
2013-02-06 03:32:00,46.0,43.0,-100.00,SSW,205,2.0,4.0,88,-99.99,,,-99.99,,2013-02-06 08:32:00,
2013-02-06 03:42:00,46.0,43.0,-100.00,SW,220,4.0,6.0,88,-99.99,,,-99.99,,2013-02-06 08:42:00,
2013-02-06 03:53:00,46.0,42.0,-100.00,SW,230,3.0,6.0,86,-99.99,,,-99.99,,2013-02-06 08:53:00,
2013-02-06 04:02:00,47.0,42.0,-100.00,SW,215,4.0,6.0,84,-99.99,,,-99.99,,2013-02-06 09:02:00,
2013-02-06 04:11:00,47.0,40.0,-100.00,SW,230,5.0,7.0,77,-99.99,,,-99.99,,2013-02-06 09:11:00,
2013-02-06 04:22:00,47.0,39.0,-100.00,WSW,250,4.0,8.0,74,-99.99,,,-99.99,,2013-02-06 09:22:00,
2013-02-06 04:32:00,46.0,39.0,-100.00,WSW,255,2.0,6.0,74,-99.99,,,-99.99,,2013-02-06 09:32:00,
2013-02-06 04:42:00,47.0,38.0,-100.00,WSW,250,4.0,9.0,71,-99.99,,,-99.99,,2013-02-06 09:42:00,
2013-02-06 04:52:00,47.0,36.0,-100.00,WSW,255,2.0,6.0,67,-99.99,,,-99.99,,2013-02-06 09:52:00,
2013-02-06 05:01:00,47.0,35.0,-100.00,WSW,240,2.0,6.0,64,-99.99,,,-99.99,,2013-02-06 10:01:00,
2013-02-06 05:11:00,47.0,35.0,-100.00,WSW,255,4.0,7.0,61,-99.99,,,-99.99,,2013-02-06 10:11:00,
2013-02-06 05:22:00,47.0,34.0,-100.00,WSW,240,1.0,6.0,61,-99.99,,,-99.99,,2013-02-06 10:22:00,
2013-02-06 05:32:00,46.0,34.0,-100.00,SW,235,2.0,5.0,62,-99.99,,,-99.99,,2013-02-06 10:32:00,
2013-02-06 05:42:00,46.0,34.0,-100.00,WSW,245,1.0,7.0,62,-99.99,,,-99.99,,2013-02-06 10:42:00,
2013-02-06 05:52:00,45.0,33.0,-100.00,West,270,0.0,2.0,64,-99.99,,,-99.99,,2013-02-06 10:52:00,
2013-02-06 06:02:00,45.0,34.0,-100.00,West,270,0.0,1.0,65,-99.99,,,-99.99,,2013-02-06 11:02:00,
2013-02-06 06:11:00,45.0,34.0,-100.00,WNW,295,1.0,6.0,64,-99.99,,,-99.99,,2013-02-06 11:11:00,
2013-02-06 06:22:00,45.0,33.0,-100.00,WNW,300,0.0,1.0,63,-99.99,,,-99.99,,2013-02-06 11:22:00,
2013-02-06 06:32:00,45.0,33.0,-100.00,NNE,30,0.0,1.0,64,-99.99,,,-99.99,,2013-02-06 11:32:00,
2013-02-06 06:42:00,44.0,33.0,-100.00,ENE,60,2.0,5.0,64,-99.99,,,-99.99,,2013-02-06 11:42:00,
2013-02-06 06:52:00,44.0,33.0,-100.00,NE,45,1.0,8.0,66,-99.99,,,-99.99,,2013-02-06 11:52:00,
2013-02-06 07:02:00,45.0,34.0,-100.00,NNE,15,1.0,5.0,64,-99.99,,,-99.99,,2013-02-06 12:02:00,
2013-02-06 07:12:00,44.0,33.0,-100.00,NE,40,0.0,5.0,63,-99.99,,,-99.99,,2013-02-06 12:12:00,
2013-02-06 07:22:00,44.0,33.0,-100.00,NE,45,0.0,2.0,64,-99.99,,,-99.99,,2013-02-06 12:22:00,
2013-02-06 07:32:00,44.0,33.0,-100.00,East,80,1.0,6.0,65,-99.99,,,-99.99,,2013-02-06 12:32:00,
2013-02-06 07:42:00,44.0,33.0,-100.00,NW,325,0.0,4.0,65,-99.99,,,-99.99,,2013-02-06 12:42:00,
2013-02-06 07:50:00,45.0,32.0,-100.00,East,80,0.0,3.0,61,-99.99,,,-99.99,,2013-02-06 12:50:00,
2013-02-06 07:52:00,44.0,33.0,-100.00,East,95,0.0,4.0,64,-99.99,,,-99.99,,2013-02-06 12:52:00,
2013-02-06 08:02:00,45.0,33.0,-100.00,East,90,0.0,2.0,64,-99.99,,,-99.99,,2013-02-06 13:02:00,
2013-02-06 08:12:00,45.0,33.0,-100.00,NE,55,1.0,4.0,62,-99.99,,,-99.99,,2013-02-06 13:12:00,
2013-02-06 08:22:00,45.0,32.0,-100.00,East,80,0.0,3.0,61,-99.99,,,-99.99,,2013-02-06 13:22:00,
2013-02-06 08:32:00,45.0,32.0,-100.00,East,80,0.0,3.0,61,-99.99,,,-99.99,,2013-02-06 13:32:00,
2013-02-06 08:42:00,45.0,32.0,-100.00,East,80,0.0,3.0,61,-99.99,,,-99.99,,2013-02-06 13:42:00,
2013-02-06 09:32:00,51.0,31.0,-100.00,NNW,340,1.0,5.0,45,-99.99,,,-99.99,,2013-02-06 14:32:00,
2013-02-06 09:42:00,52.0,31.0,-100.00,NE,35,1.0,3.0,44,-99.99,,,-99.99,,2013-02-06 14:42:00,
2013-02-06 09:52:00,52.0,31.0,-100.00,North,10,1.0,4.0,43,-99.99,,,-99.99,,2013-02-06 14:52:00,
2013-02-06 10:02:00,51.0,30.0,-100.00,NE,45,1.0,6.0,44,-99.99,,,-99.99,,2013-02-06 15:02:00,
2013-02-06 10:11:00,53.0,31.0,-100.00,North,10,2.0,4.0,43,-99.99,,,-99.99,,2013-02-06 15:11:00,
2013-02-06 10:21:00,54.0,32.0,-100.00,ENE,65,0.0,4.0,43,-99.99,,,-99.99,,2013-02-06 15:21:00,
2013-02-06 10:32:00,54.0,31.0,-100.00,NW,325,1.0,5.0,41,-99.99,,,-99.99,,2013-02-06 15:32:00,
2013-02-06 10:42:00,55.0,32.0,-100.00,NNE,15,1.0,5.0,41,-99.99,,,-99.99,,2013-02-06 15:42:00,
2013-02-06 10:52:00,55.0,31.0,-100.00,NNE,15,6.0,8.0,39,-99.99,,,-99.99,,2013-02-06 15:52:00,
2013-02-06 11:01:00,56.0,30.0,-100.00,NE,35,2.0,6.0,36,-99.99,,,-99.99,,2013-02-06 16:01:00,
2013-02-06 11:11:00,57.0,29.0,-100.00,ENE,65,2.0,9.0,34,-99.99,,,-99.99,,2013-02-06 16:11:00,
2013-02-06 11:22:00,58.0,28.0,-100.00,WNW,295,3.0,7.0,32,-99.99,,,-99.99,,2013-02-06 16:22:00,
2013-02-06 11:32:00,58.0,28.0,-100.00,North,10,4.0,7.0,31,-99.99,,,-99.99,,2013-02-06 16:32:00,
2013-02-06 11:42:00,59.0,27.0,-100.00,NW,325,2.0,7.0,29,-99.99,,,-99.99,,2013-02-06 16:42:00,
2013-02-06 11:52:00,60.0,26.0,-100.00,NE,50,4.0,8.0,28,-99.99,,,-99.99,,2013-02-06 16:52:00,
2013-02-06 12:02:00,60.0,26.0,-100.00,North,10,4.0,7.0,27,-99.99,,,-99.99,,2013-02-06 17:02:00,
2013-02-06 12:12:00,61.0,27.0,-100.00,ENE,65,4.0,9.0,27,-99.99,,,-99.99,,2013-02-06 17:12:00,
2013-02-06 12:22:00,62.0,27.0,-100.00,NNE,25,3.0,6.0,26,-99.99,,,-99.99,,2013-02-06 17:22:00,
2013-02-06 12:32:00,62.0,26.0,-100.00,ENE,70,4.0,7.0,25,-99.99,,,-99.99,,2013-02-06 17:32:00,
2013-02-06 12:42:00,63.0,27.0,-100.00,ESE,105,4.0,6.0,25,-99.99,,,-99.99,,2013-02-06 17:42:00,
2013-02-06 12:52:00,62.0,25.0,-100.00,NNE,25,1.0,6.0,24,-99.99,,,-99.99,,2013-02-06 17:52:00,
2013-02-06 13:02:00,65.0,26.0,-100.00,WSW,250,1.0,5.0,23,-99.99,,,-99.99,,2013-02-06 18:02:00,
2013-02-06 13:12:00,62.0,25.0,-100.00,NNW,340,2.0,9.0,24,-99.99,,,-99.99,,2013-02-06 18:12:00,
2013-02-06 13:23:00,64.0,25.0,-100.00,SW,220,1.0,8.0,23,-99.99,,,-99.99,,2013-02-06 18:23:00,
2013-02-06 13:32:00,64.0,25.0,-100.00,NNW,335,1.0,8.0,22,-99.99,,,-99.99,,2013-02-06 18:32:00,
2013-02-06 13:42:00,63.0,22.0,-100.00,North,10,6.0,15.0,21,-99.99,,,-99.99,,2013-02-06 18:42:00,
2013-02-06 13:52:00,63.0,23.0,-100.00,NW,320,4.0,9.0,21,-99.99,,,-99.99,,2013-02-06 18:52:00,
2013-02-06 14:02:00,65.0,22.0,-100.00,SW,225,7.0,12.0,19,-99.99,,,-99.99,,2013-02-06 19:02:00,
2013-02-06 14:11:00,65.0,21.0,-100.00,West,280,4.0,10.0,19,-99.99,,,-99.99,,2013-02-06 19:11:00,
2013-02-06 14:22:00,66.0,22.0,-100.00,ENE,65,1.0,6.0,19,-99.99,,,-99.99,,2013-02-06 19:22:00,
2013-02-06 14:32:00,66.0,23.0,-100.00,West,270,3.0,10.0,19,-99.99,,,-99.99,,2013-02-06 19:32:00,
2013-02-06 14:42:00,68.0,23.0,-100.00,SSW,205,4.0,7.0,18,-99.99,,,-99.99,,2013-02-06 19:42:00,
2013-02-06 14:52:00,67.0,20.0,-100.00,NW,310,2.0,9.0,17,-99.99,,,-99.99,,2013-02-06 19:52:00,
2013-02-06 15:01:00,67.0,16.0,-100.00,West,260,5.0,16.0,14,-99.99,,,-99.99,,2013-02-06 20:01:00,
2013-02-06 15:11:00,68.0,13.0,-100.00,West,280,6.0,12.0,12,-99.99,,,-99.99,,2013-02-06 20:11:00,
2013-02-06 15:21:00,67.0,9.0,-100.00,WSW,255,6.0,12.0,10,-99.99,,,-99.99,,2013-02-06 20:21:00,
2013-02-06 15:32:00,66.0,15.0,-100.00,North,10,5.0,14.0,14,-99.99,,,-99.99,,2013-02-06 20:32:00,
2013-02-06 15:42:00,67.0,13.0,-100.00,WSW,255,5.0,11.0,12,-99.99,,,-99.99,,2013-02-06 20:42:00,
2013-02-06 15:52:00,67.0,10.0,-100.00,WNW,300,4.0,10.0,11,-99.99,,,-99.99,,2013-02-06 20:52:00,
2013-02-06 16:02:00,65.0,10.0,-100.00,NW,320,7.0,14.0,11,-99.99,,,-99.99,,2013-02-06 21:02:00,
2013-02-06 16:11:00,67.0,13.0,-100.00,NNW,330,6.0,10.0,12,-99.99,,,-99.99,,2013-02-06 21:11:00,
2013-02-06 16:21:00,67.0,12.0,-100.00,West,265,5.0,11.0,12,-99.99,,,-99.99,,2013-02-06 21:21:00,
2013-02-06 16:32:00,67.0,13.0,-100.00,WNW,290,6.0,9.0,12,-99.99,,,-99.99,,2013-02-06 21:32:00,
2013-02-06 16:42:00,66.0,12.0,-100.00,NW,320,5.0,11.0,12,-99.99,,,-99.99,,2013-02-06 21:42:00,
2013-02-06 16:51:00,67.0,13.0,-100.00,NNW,335,6.0,9.0,12,-99.99,,,-99.99,,2013-02-06 21:51:00,
2013-02-06 17:01:00,66.0,12.0,-100.00,NNE,30,2.0,10.0,12,-99.99,,,-99.99,,2013-02-06 22:01:00,
2013-02-06 17:11:00,67.0,13.0,-100.00,North,10,5.0,7.0,12,-99.99,,,-99.99,,2013-02-06 22:11:00,
2013-02-06 17:22:00,66.0,12.0,-100.00,NNE,20,5.0,8.0,12,-99.99,,,-99.99,,2013-02-06 22:22:00,
2013-02-06 17:32:00,66.0,12.0,-100.00,NNE,20,3.0,6.0,12,-99.99,,,-99.99,,2013-02-06 22:32:00,
2013-02-06 17:42:00,66.0,12.0,-100.00,NE,40,1.0,7.0,12,-99.99,,,-99.99,,2013-02-06 22:42:00,
2013-02-06 17:52:00,66.0,12.0,-100.00,NE,40,1.0,7.0,12,-99.99,,,-99.99,,2013-02-06 22:52:00,
2013-02-06 18:01:00,65.0,11.0,-100.00,NE,45,1.0,4.0,12,-99.99,,,-99.99,,2013-02-06 23:01:00,
2013-02-06 18:11:00,64.0,11.0,-100.00,East,85,1.0,3.0,12,-99.99,,,-99.99,,2013-02-06 23:11:00,
2013-02-06 18:21:00,62.0,12.0,-100.00,ESE,105,3.0,5.0,14,-99.99,,,-99.99,,2013-02-06 23:21:00,
2013-02-06 18:32:00,60.0,12.0,-100.00,East,95,3.0,4.0,15,-99.99,,,-99.99,,2013-02-06 23:32:00,
2013-02-06 18:42:00,58.0,12.0,-100.00,ESE,110,2.0,4.0,16,-99.99,,,-99.99,,2013-02-06 23:42:00,
2013-02-06 18:52:00,57.0,12.0,-100.00,ESE,115,2.0,4.0,17,-99.99,,,-99.99,,2013-02-06 23:52:00,
2013-02-06 19:02:00,56.0,12.0,-100.00,ESE,115,3.0,4.0,17,-99.99,,,-99.99,,2013-02-07 00:02:00,
2013-02-06 19:11:00,56.0,13.0,-100.00,ESE,105,4.0,5.0,18,-99.99,,,-99.99,,2013-02-07 00:11:00,
2013-02-06 19:22:00,56.0,14.0,-100.00,ESE,105,4.0,6.0,19,-99.99,,,-99.99,,2013-02-07 00:22:00,
2013-02-06 19:32:00,56.0,14.0,-100.00,ESE,110,4.0,6.0,19,-99.99,,,-99.99,,2013-02-07 00:32:00,
2013-02-06 19:42:00,56.0,14.0,-100.00,ESE,105,4.0,6.0,19,-99.99,,,-99.99,,2013-02-07 00:42:00,
2013-02-06 19:52:00,56.0,14.0,-100.00,ESE,105,4.0,6.0,19,-99.99,,,-99.99,,2013-02-07 00:52:00,
2013-02-06 20:01:00,55.0,15.0,-100.00,ESE,105,1.0,4.0,20,-99.99,,,-99.99,,2013-02-07 01:01:00,
2013-02-06 20:11:00,55.0,16.0,-100.00,ESE,120,3.0,4.0,21,-99.99,,,-99.99,,2013-02-07 01:11:00,
2013-02-06 20:21:00,55.0,16.0,-100.00,East,100,6.0,8.0,21,-99.99,,,-99.99,,2013-02-07 01:21:00,
2013-02-06 20:32:00,56.0,16.0,-100.00,ESE,105,5.0,8.0,21,-99.99,,,-99.99,,2013-02-07 01:32:00,
2013-02-06 20:42:00,56.0,16.0,-100.00,East,100,4.0,8.0,21,-99.99,,,-99.99,,2013-02-07 01:42:00,
2013-02-06 20:52:00,56.0,17.0,-100.00,ESE,110,5.0,10.0,21,-99.99,,,-99.99,,2013-02-07 01:52:00,
2013-02-06 21:02:00,56.0,17.0,-100.00,East,100,6.0,11.0,21,-99.99,,,-99.99,,2013-02-07 02:02:00,
2013-02-06 21:12:00,56.0,17.0,-100.00,ESE,105,6.0,11.0,21,-99.99,,,-99.99,,2013-02-07 02:12:00,
2013-02-06 21:21:00,56.0,17.0,-100.00,ESE,105,6.0,11.0,21,-99.99,,,-99.99,,2013-02-07 02:21:00,
2013-02-06 21:32:00,55.0,16.0,-100.00,SE,125,7.0,12.0,21,-99.99,,,-99.99,,2013-02-07 02:32:00,
2013-02-06 21:42:00,55.0,16.0,-100.00,SE,125,7.0,12.0,21,-99.99,,,-99.99,,2013-02-07 02:42:00,
2013-02-06 21:52:00,55.0,16.0,-100.00,SE,125,7.0,12.0,21,-99.99,,,-99.99,,2013-02-07 02:52:00,
2013-02-06 22:02:00,54.0,16.0,-100.00,ESE,120,8.0,13.0,22,-99.99,,,-99.99,,2013-02-07 03:02:00,
2013-02-06 22:11:00,54.0,16.0,-100.00,ESE,105,6.0,13.0,22,-99.99,,,-99.99,,2013-02-07 03:11:00,
2013-02-06 22:21:00,54.0,16.0,-100.00,ESE,115,8.0,14.0,22,-99.99,,,-99.99,,2013-02-07 03:21:00,
2013-02-06 22:32:00,54.0,16.0,-100.00,SE,135,6.0,13.0,22,-99.99,,,-99.99,,2013-02-07 03:32:00,
2013-02-06 22:42:00,54.0,17.0,-100.00,ESE,115,8.0,13.0,23,-99.99,,,-99.99,,2013-02-07 03:42:00,
2013-02-06 22:52:00,53.0,17.0,-100.00,ESE,120,6.0,13.0,23,-99.99,,,-99.99,,2013-02-07 03:52:00,
2013-02-06 23:01:00,53.0,17.0,-100.00,ESE,120,6.0,13.0,23,-99.99,,,-99.99,,2013-02-07 04:01:00,
2013-02-06 23:11:00,53.0,16.0,-100.00,ESE,115,7.0,11.0,23,-99.99,,,-99.99,,2013-02-07 04:11:00,
2013-02-06 23:22:00,53.0,16.0,-100.00,ESE,110,8.0,14.0,23,-99.99,,,-99.99,,2013-02-07 04:22:00,
2013-02-06 23:32:00,53.0,16.0,-100.00,ESE,105,6.0,10.0,23,-99.99,,,-99.99,,2013-02-07 04:32:00,
2013-02-06 23:42:00,52.0,17.0,-100.00,ESE,115,7.0,11.0,24,-99.99,,,-99.99,,2013-02-07 04:42:00,
2013-02-06 23:53:00,52.0,17.0,-100.00,ESE,105,8.0,14.0,24,-99.99,,,-99.99,,2013-02-07 04:53:00,